DABT

Batna Airport

Batna, Algeria
TAF DABT 192300Z 2000/2024 26008KT 9999 FEW030TCU SCT040 PROB30 TEMPO 2000/2012 4000 -TSRA FEW026CB BECMG 2010/2012 35014KT
Issued Valid From Valid To
Sep-19 @ 23:00 UTC
(2 hours ago)
Sep-20 @ 00:00 UTC
(an hour ago)
Sep-21 @ 00:00 UTC
(in 23 hours)
Sep-20 @ 00:00 to Sep-20 @ 10:00
TAF DABT 192300Z 2000/2024 26008KT 9999 FEW030TCU SCT040
Wind Visibility Clouds
260° at 8 knots 10,000+ meters
  • Few at 3,000' AGL
  • Scattered at 4,000' AGL
Temporary  (Probability 30%) Sep-20 @ 00:00 to Sep-20 @ 12:00
PROB30 TEMPO 2000/2012 4000 -TSRA FEW026CB
Visibility Clouds Conditions
4,007 meters
  • Few at 2,600' AGL
  • Light Thunderstorm
  • Light Rain
Becoming Sep-20 @ 10:00 to Sep-21 @ 00:00
BECMG 2010/2012 35014KT
Wind Visibility Clouds
350° at 14 knots 10,000+ meters
  • Few at 3,000' AGL
  • Scattered at 4,000' AGL
TAF DABT 192300Z 2000/2024 26008KT 9999 FEW030TCU SCT040 PROB30 TEMPO 2000/2012 4000 -TSRA FEW026CB BECMG 2010/2012 35014KT
Issued Sep-19 @ 23:00 UTC
(2 hours ago)
Valid From Sep-20 @ 00:00 UTC
(an hour ago)
Valid To Sep-21 @ 00:00 UTC
(in 23 hours)
Sep-20 @ 00:00 - Sep-20 @ 10:00
Wind Visibility
260° at 8 knots 10,000+ meters
Clouds
  • Few at 3,000' AGL
  • Scattered at 4,000' AGL
Probability 30% Temporary Sep-20 @ 00:00 - Sep-20 @ 12:00
Clouds
  • Few at 2,600' AGL
Conditions
  • Light Thunderstorm
  • Light Rain
Becoming Sep-20 @ 10:00 - Sep-21 @ 00:00
Wind Visibility
350° at 14 knots 10,000+ meters
Clouds
  • Few at 3,000' AGL
  • Scattered at 4,000' AGL